sensor_id;sensor_type;location;lat;lon;timestamp;temperature;humidity
75091;DHT22;63674;48.048;8.306;2023-07-22T00:01:25;8.50;99.90
75091;DHT22;63674;48.048;8.306;2023-07-22T00:03:53;8.50;99.90
75091;DHT22;63674;48.048;8.306;2023-07-22T00:06:24;8.40;99.90
75091;DHT22;63674;48.048;8.306;2023-07-22T00:08:52;8.40;99.90
75091;DHT22;63674;48.048;8.306;2023-07-22T00:11:21;8.50;99.90
75091;DHT22;63674;48.048;8.306;2023-07-22T00:13:50;8.40;99.90
75091;DHT22;63674;48.048;8.306;2023-07-22T00:16:19;8.40;99.90
75091;DHT22;63674;48.048;8.306;2023-07-22T00:18:47;8.40;99.90
75091;DHT22;63674;48.048;8.306;2023-07-22T00:21:16;8.30;99.90
75091;DHT22;63674;48.048;8.306;2023-07-22T00:23:46;8.30;99.90
75091;DHT22;63674;48.048;8.306;2023-07-22T00:26:15;8.20;99.90
75091;DHT22;63674;48.048;8.306;2023-07-22T00:28:44;8.20;99.90
75091;DHT22;63674;48.048;8.306;2023-07-22T00:31:12;8.20;99.90
75091;DHT22;63674;48.048;8.306;2023-07-22T00:33:41;8.10;99.90
75091;DHT22;63674;48.048;8.306;2023-07-22T00:36:10;8.10;99.90
75091;DHT22;63674;48.048;8.306;2023-07-22T00:38:39;8.10;99.90
75091;DHT22;63674;48.048;8.306;2023-07-22T00:41:09;8.00;99.90
75091;DHT22;63674;48.048;8.306;2023-07-22T00:43:39;8.00;99.90
75091;DHT22;63674;48.048;8.306;2023-07-22T00:46:08;8.00;99.90
75091;DHT22;63674;48.048;8.306;2023-07-22T00:48:38;8.00;99.90
75091;DHT22;63674;48.048;8.306;2023-07-22T00:51:06;8.00;99.90
75091;DHT22;63674;48.048;8.306;2023-07-22T00:53:35;8.00;99.90
75091;DHT22;63674;48.048;8.306;2023-07-22T00:56:04;7.90;99.90
75091;DHT22;63674;48.048;8.306;2023-07-22T00:58:34;8.00;99.90
75091;DHT22;63674;48.048;8.306;2023-07-22T01:01:03;7.90;99.90
75091;DHT22;63674;48.048;8.306;2023-07-22T01:03:32;7.90;99.90
75091;DHT22;63674;48.048;8.306;2023-07-22T01:06:01;7.80;99.90
75091;DHT22;63674;48.048;8.306;2023-07-22T01:08:29;7.80;99.90
75091;DHT22;63674;48.048;8.306;2023-07-22T01:10:58;7.70;99.90
75091;DHT22;63674;48.048;8.306;2023-07-22T01:13:27;7.70;99.90
75091;DHT22;63674;48.048;8.306;2023-07-22T01:15:57;7.60;99.90
75091;DHT22;63674;48.048;8.306;2023-07-22T01:18:26;7.60;99.90
75091;DHT22;63674;48.048;8.306;2023-07-22T01:20:55;7.50;99.90
75091;DHT22;63674;48.048;8.306;2023-07-22T01:23:25;7.50;99.90
75091;DHT22;63674;48.048;8.306;2023-07-22T01:25:54;7.40;99.90
75091;DHT22;63674;48.048;8.306;2023-07-22T01:28:23;7.40;99.90
75091;DHT22;63674;48.048;8.306;2023-07-22T01:30:52;7.40;99.90
75091;DHT22;63674;48.048;8.306;2023-07-22T01:33:21;7.40;99.90
75091;DHT22;63674;48.048;8.306;2023-07-22T01:35:50;7.40;99.90
75091;DHT22;63674;48.048;8.306;2023-07-22T01:38:19;7.40;99.90
75091;DHT22;63674;48.048;8.306;2023-07-22T01:40:49;7.30;99.90
75091;DHT22;63674;48.048;8.306;2023-07-22T01:43:17;7.40;99.90
75091;DHT22;63674;48.048;8.306;2023-07-22T01:45:46;7.40;99.90
75091;DHT22;63674;48.048;8.306;2023-07-22T01:48:14;7.40;99.90
75091;DHT22;63674;48.048;8.306;2023-07-22T01:50:43;7.20;99.90
75091;DHT22;63674;48.048;8.306;2023-07-22T01:53:12;7.20;99.90
75091;DHT22;63674;48.048;8.306;2023-07-22T01:55:40;7.20;99.90
75091;DHT22;63674;48.048;8.306;2023-07-22T01:58:10;7.20;99.90
75091;DHT22;63674;48.048;8.306;2023-07-22T02:00:39;7.20;99.90
75091;DHT22;63674;48.048;8.306;2023-07-22T02:03:08;7.20;99.90
75091;DHT22;63674;48.048;8.306;2023-07-22T02:05:36;7.20;99.90
75091;DHT22;63674;48.048;8.306;2023-07-22T02:08:05;7.20;99.90
75091;DHT22;63674;48.048;8.306;2023-07-22T02:10:34;7.20;99.90
75091;DHT22;63674;48.048;8.306;2023-07-22T02:13:02;7.20;99.90
75091;DHT22;63674;48.048;8.306;2023-07-22T02:15:33;7.20;99.90
75091;DHT22;63674;48.048;8.306;2023-07-22T02:18:02;7.20;99.90
75091;DHT22;63674;48.048;8.306;2023-07-22T02:20:31;7.10;99.90
75091;DHT22;63674;48.048;8.306;2023-07-22T02:22:59;7.10;99.90
75091;DHT22;63674;48.048;8.306;2023-07-22T02:25:28;7.10;99.90
75091;DHT22;63674;48.048;8.306;2023-07-22T02:27:56;7.20;99.90
75091;DHT22;63674;48.048;8.306;2023-07-22T02:30:25;7.20;99.90
75091;DHT22;63674;48.048;8.306;2023-07-22T02:32:55;7.20;99.90
75091;DHT22;63674;48.048;8.306;2023-07-22T02:35:24;7.20;99.90
75091;DHT22;63674;48.048;8.306;2023-07-22T02:37:52;7.10;99.90
75091;DHT22;63674;48.048;8.306;2023-07-22T02:40:21;7.10;99.90
75091;DHT22;63674;48.048;8.306;2023-07-22T02:42:49;7.00;99.90
75091;DHT22;63674;48.048;8.306;2023-07-22T02:45:18;6.90;99.90
75091;DHT22;63674;48.048;8.306;2023-07-22T02:47:46;6.90;99.90
75091;DHT22;63674;48.048;8.306;2023-07-22T02:50:16;6.80;99.90
75091;DHT22;63674;48.048;8.306;2023-07-22T02:52:45;6.80;99.90
75091;DHT22;63674;48.048;8.306;2023-07-22T02:55:16;6.70;99.90
75091;DHT22;63674;48.048;8.306;2023-07-22T02:57:46;6.80;99.90
75091;DHT22;63674;48.048;8.306;2023-07-22T03:00:17;6.80;99.90
75091;DHT22;63674;48.048;8.306;2023-07-22T03:02:51;6.80;99.90
75091;DHT22;63674;48.048;8.306;2023-07-22T03:05:22;6.80;99.90
75091;DHT22;63674;48.048;8.306;2023-07-22T03:07:50;6.80;99.90
75091;DHT22;63674;48.048;8.306;2023-07-22T03:10:20;6.80;99.90
75091;DHT22;63674;48.048;8.306;2023-07-22T03:12:48;6.70;99.90
75091;DHT22;63674;48.048;8.306;2023-07-22T03:15:21;6.70;99.90
75091;DHT22;63674;48.048;8.306;2023-07-22T03:17:53;6.70;99.90
75091;DHT22;63674;48.048;8.306;2023-07-22T03:20:24;6.50;99.90
75091;DHT22;63674;48.048;8.306;2023-07-22T03:22:53;6.40;99.90
75091;DHT22;63674;48.048;8.306;2023-07-22T03:25:22;6.40;99.90
75091;DHT22;63674;48.048;8.306;2023-07-22T03:27:51;6.40;99.90
75091;DHT22;63674;48.048;8.306;2023-07-22T03:30:22;6.40;99.90
75091;DHT22;63674;48.048;8.306;2023-07-22T03:32:50;6.50;99.90
75091;DHT22;63674;48.048;8.306;2023-07-22T03:35:19;6.50;99.90
75091;DHT22;63674;48.048;8.306;2023-07-22T03:37:49;6.40;99.90
75091;DHT22;63674;48.048;8.306;2023-07-22T03:40:17;6.40;99.90
75091;DHT22;63674;48.048;8.306;2023-07-22T03:42:48;6.30;99.90
75091;DHT22;63674;48.048;8.306;2023-07-22T03:45:17;6.30;99.90
75091;DHT22;63674;48.048;8.306;2023-07-22T03:47:50;6.40;99.90
75091;DHT22;63674;48.048;8.306;2023-07-22T03:50:20;6.40;99.90
75091;DHT22;63674;48.048;8.306;2023-07-22T03:52:50;6.50;99.90
75091;DHT22;63674;48.048;8.306;2023-07-22T03:55:18;6.40;99.90
75091;DHT22;63674;48.048;8.306;2023-07-22T03:57:47;6.40;99.90
75091;DHT22;63674;48.048;8.306;2023-07-22T04:00:16;6.40;99.90
75091;DHT22;63674;48.048;8.306;2023-07-22T04:02:45;6.30;99.90
75091;DHT22;63674;48.048;8.306;2023-07-22T04:05:13;6.30;99.90
75091;DHT22;63674;48.048;8.306;2023-07-22T04:07:43;6.20;99.90
75091;DHT22;63674;48.048;8.306;2023-07-22T04:10:14;6.20;99.90
75091;DHT22;63674;48.048;8.306;2023-07-22T04:12:42;6.20;99.90
75091;DHT22;63674;48.048;8.306;2023-07-22T04:15:11;6.20;99.90
75091;DHT22;63674;48.048;8.306;2023-07-22T04:17:40;6.20;99.90
75091;DHT22;63674;48.048;8.306;2023-07-22T04:20:09;6.20;99.90
75091;DHT22;63674;48.048;8.306;2023-07-22T04:22:38;6.30;99.90
75091;DHT22;63674;48.048;8.306;2023-07-22T04:25:07;6.30;99.90
75091;DHT22;63674;48.048;8.306;2023-07-22T04:27:38;6.30;99.90
75091;DHT22;63674;48.048;8.306;2023-07-22T04:30:08;6.30;99.90
75091;DHT22;63674;48.048;8.306;2023-07-22T04:32:37;6.30;99.90
75091;DHT22;63674;48.048;8.306;2023-07-22T04:35:07;6.30;99.90
75091;DHT22;63674;48.048;8.306;2023-07-22T04:37:37;6.30;99.90
75091;DHT22;63674;48.048;8.306;2023-07-22T04:40:06;6.30;99.90
75091;DHT22;63674;48.048;8.306;2023-07-22T04:42:39;6.20;99.90
75091;DHT22;63674;48.048;8.306;2023-07-22T04:45:09;6.30;99.90
75091;DHT22;63674;48.048;8.306;2023-07-22T04:47:38;6.30;99.90
75091;DHT22;63674;48.048;8.306;2023-07-22T04:50:08;6.40;99.90
75091;DHT22;63674;48.048;8.306;2023-07-22T04:52:37;6.40;99.90
75091;DHT22;63674;48.048;8.306;2023-07-22T04:55:07;6.40;99.90
75091;DHT22;63674;48.048;8.306;2023-07-22T04:57:37;6.40;99.90
75091;DHT22;63674;48.048;8.306;2023-07-22T05:00:08;6.50;99.90
75091;DHT22;63674;48.048;8.306;2023-07-22T05:02:39;6.50;99.90
75091;DHT22;63674;48.048;8.306;2023-07-22T05:05:08;6.50;99.90
75091;DHT22;63674;48.048;8.306;2023-07-22T05:07:36;6.60;99.90
75091;DHT22;63674;48.048;8.306;2023-07-22T05:10:06;6.70;99.90
75091;DHT22;63674;48.048;8.306;2023-07-22T05:12:41;6.70;99.90
75091;DHT22;63674;48.048;8.306;2023-07-22T05:15:11;6.70;99.90
75091;DHT22;63674;48.048;8.306;2023-07-22T05:17:40;6.70;99.90
75091;DHT22;63674;48.048;8.306;2023-07-22T05:20:09;6.80;99.90
75091;DHT22;63674;48.048;8.306;2023-07-22T05:22:40;6.80;99.90
75091;DHT22;63674;48.048;8.306;2023-07-22T05:25:09;6.80;99.90
75091;DHT22;63674;48.048;8.306;2023-07-22T05:27:41;6.90;99.90
75091;DHT22;63674;48.048;8.306;2023-07-22T05:30:10;7.00;99.90
75091;DHT22;63674;48.048;8.306;2023-07-22T05:32:54;7.00;99.90
75091;DHT22;63674;48.048;8.306;2023-07-22T05:35:23;7.10;99.90
75091;DHT22;63674;48.048;8.306;2023-07-22T05:37:52;7.20;99.90
75091;DHT22;63674;48.048;8.306;2023-07-22T05:40:20;7.30;99.90
75091;DHT22;63674;48.048;8.306;2023-07-22T05:42:51;7.40;99.90
75091;DHT22;63674;48.048;8.306;2023-07-22T05:45:19;7.50;99.90
75091;DHT22;63674;48.048;8.306;2023-07-22T05:47:48;7.60;99.90
75091;DHT22;63674;48.048;8.306;2023-07-22T05:50:17;7.60;99.90
75091;DHT22;63674;48.048;8.306;2023-07-22T05:52:46;7.70;99.90
75091;DHT22;63674;48.048;8.306;2023-07-22T05:55:15;7.70;99.90
75091;DHT22;63674;48.048;8.306;2023-07-22T05:57:43;7.80;99.90
75091;DHT22;63674;48.048;8.306;2023-07-22T06:00:14;7.90;99.90
75091;DHT22;63674;48.048;8.306;2023-07-22T06:02:44;8.00;99.90
75091;DHT22;63674;48.048;8.306;2023-07-22T06:05:12;8.20;99.90
75091;DHT22;63674;48.048;8.306;2023-07-22T06:07:41;8.30;99.90
75091;DHT22;63674;48.048;8.306;2023-07-22T06:10:10;8.40;99.90
75091;DHT22;63674;48.048;8.306;2023-07-22T06:12:38;8.50;99.90
75091;DHT22;63674;48.048;8.306;2023-07-22T06:15:09;8.60;99.90
75091;DHT22;63674;48.048;8.306;2023-07-22T06:17:39;8.80;99.90
75091;DHT22;63674;48.048;8.306;2023-07-22T06:20:09;9.00;99.90
75091;DHT22;63674;48.048;8.306;2023-07-22T06:22:38;9.20;99.90
75091;DHT22;63674;48.048;8.306;2023-07-22T06:25:08;9.30;99.90
75091;DHT22;63674;48.048;8.306;2023-07-22T06:27:38;9.50;99.90
75091;DHT22;63674;48.048;8.306;2023-07-22T06:30:07;9.70;99.90
75091;DHT22;63674;48.048;8.306;2023-07-22T06:32:38;10.00;99.90
75091;DHT22;63674;48.048;8.306;2023-07-22T06:35:08;10.20;99.90
75091;DHT22;63674;48.048;8.306;2023-07-22T06:37:37;10.70;99.90
75091;DHT22;63674;48.048;8.306;2023-07-22T06:40:07;11.10;99.90
75091;DHT22;63674;48.048;8.306;2023-07-22T06:42:36;11.40;99.90
75091;DHT22;63674;48.048;8.306;2023-07-22T06:45:05;11.90;99.90
75091;DHT22;63674;48.048;8.306;2023-07-22T06:47:34;12.40;99.90
75091;DHT22;63674;48.048;8.306;2023-07-22T06:50:05;12.90;99.90
75091;DHT22;63674;48.048;8.306;2023-07-22T06:52:34;13.50;99.90
75091;DHT22;63674;48.048;8.306;2023-07-22T06:55:03;13.80;99.90
75091;DHT22;63674;48.048;8.306;2023-07-22T06:57:33;14.20;99.90
75091;DHT22;63674;48.048;8.306;2023-07-22T07:00:01;14.60;99.90
75091;DHT22;63674;48.048;8.306;2023-07-22T07:02:30;15.00;99.90
75091;DHT22;63674;48.048;8.306;2023-07-22T07:04:59;15.20;99.90
75091;DHT22;63674;48.048;8.306;2023-07-22T07:07:29;15.40;99.90
75091;DHT22;63674;48.048;8.306;2023-07-22T07:09:59;15.70;99.90
75091;DHT22;63674;48.048;8.306;2023-07-22T07:12:28;16.20;99.90
75091;DHT22;63674;48.048;8.306;2023-07-22T07:14:56;17.10;99.90
75091;DHT22;63674;48.048;8.306;2023-07-22T07:17:25;17.10;99.90
75091;DHT22;63674;48.048;8.306;2023-07-22T07:19:54;17.10;99.90
75091;DHT22;63674;48.048;8.306;2023-07-22T07:22:23;17.40;99.90
75091;DHT22;63674;48.048;8.306;2023-07-22T07:24:53;18.00;99.90
75091;DHT22;63674;48.048;8.306;2023-07-22T07:27:21;18.70;99.90
75091;DHT22;63674;48.048;8.306;2023-07-22T07:29:50;19.10;99.90
75091;DHT22;63674;48.048;8.306;2023-07-22T07:32:21;19.50;91.20
75091;DHT22;63674;48.048;8.306;2023-07-22T07:34:51;19.60;93.40
75091;DHT22;63674;48.048;8.306;2023-07-22T07:37:22;19.60;96.50
75091;DHT22;63674;48.048;8.306;2023-07-22T07:39:53;20.10;93.00
75091;DHT22;63674;48.048;8.306;2023-07-22T07:42:26;19.90;96.30
75091;DHT22;63674;48.048;8.306;2023-07-22T07:44:55;19.60;99.10
75091;DHT22;63674;48.048;8.306;2023-07-22T07:47:26;19.50;92.90
75091;DHT22;63674;48.048;8.306;2023-07-22T07:49:54;19.80;99.90
75091;DHT22;63674;48.048;8.306;2023-07-22T07:52:23;20.10;90.30
75091;DHT22;63674;48.048;8.306;2023-07-22T07:54:53;20.40;90.50
75091;DHT22;63674;48.048;8.306;2023-07-22T07:57:22;20.50;82.10
75091;DHT22;63674;48.048;8.306;2023-07-22T07:59:50;20.60;93.80
75091;DHT22;63674;48.048;8.306;2023-07-22T08:02:19;20.40;77.60
75091;DHT22;63674;48.048;8.306;2023-07-22T08:04:48;20.70;93.30
75091;DHT22;63674;48.048;8.306;2023-07-22T08:07:16;21.10;88.50
75091;DHT22;63674;48.048;8.306;2023-07-22T08:09:46;20.70;66.30
75091;DHT22;63674;48.048;8.306;2023-07-22T08:12:18;21.00;74.40
75091;DHT22;63674;48.048;8.306;2023-07-22T08:14:47;21.20;69.80
75091;DHT22;63674;48.048;8.306;2023-07-22T08:17:15;21.20;65.80
75091;DHT22;63674;48.048;8.306;2023-07-22T08:19:44;20.80;71.70
75091;DHT22;63674;48.048;8.306;2023-07-22T08:22:13;20.30;79.90
75091;DHT22;63674;48.048;8.306;2023-07-22T08:24:41;20.50;69.00
75091;DHT22;63674;48.048;8.306;2023-07-22T08:27:10;20.80;70.70
75091;DHT22;63674;48.048;8.306;2023-07-22T08:29:40;21.10;67.60
75091;DHT22;63674;48.048;8.306;2023-07-22T08:32:08;21.00;65.70
75091;DHT22;63674;48.048;8.306;2023-07-22T08:34:37;20.40;65.00
75091;DHT22;63674;48.048;8.306;2023-07-22T08:37:05;20.60;69.20
75091;DHT22;63674;48.048;8.306;2023-07-22T08:39:34;21.00;68.90
75091;DHT22;63674;48.048;8.306;2023-07-22T08:42:03;21.60;69.70
75091;DHT22;63674;48.048;8.306;2023-07-22T08:44:38;21.90;69.20
75091;DHT22;63674;48.048;8.306;2023-07-22T08:47:15;21.70;62.50
75091;DHT22;63674;48.048;8.306;2023-07-22T08:49:50;20.90;59.10
75091;DHT22;63674;48.048;8.306;2023-07-22T08:52:21;20.70;64.30
75091;DHT22;63674;48.048;8.306;2023-07-22T08:54:51;20.00;63.40
75091;DHT22;63674;48.048;8.306;2023-07-22T08:57:21;20.00;65.40
75091;DHT22;63674;48.048;8.306;2023-07-22T08:59:52;19.70;66.80
75091;DHT22;63674;48.048;8.306;2023-07-22T09:02:21;19.40;71.90
75091;DHT22;63674;48.048;8.306;2023-07-22T09:04:50;19.00;79.90
75091;DHT22;63674;48.048;8.306;2023-07-22T09:07:18;19.00;78.50
75091;DHT22;63674;48.048;8.306;2023-07-22T09:09:47;19.20;83.40
75091;DHT22;63674;48.048;8.306;2023-07-22T09:12:17;19.70;69.40
75091;DHT22;63674;48.048;8.306;2023-07-22T09:14:46;20.30;70.10
75091;DHT22;63674;48.048;8.306;2023-07-22T09:17:16;20.60;65.00
75091;DHT22;63674;48.048;8.306;2023-07-22T09:19:45;20.70;53.20
75091;DHT22;63674;48.048;8.306;2023-07-22T09:22:13;20.80;55.30
75091;DHT22;63674;48.048;8.306;2023-07-22T09:24:42;20.90;55.70
75091;DHT22;63674;48.048;8.306;2023-07-22T09:27:10;21.50;60.40
75091;DHT22;63674;48.048;8.306;2023-07-22T09:29:39;22.00;56.50
75091;DHT22;63674;48.048;8.306;2023-07-22T09:32:08;22.20;53.60
75091;DHT22;63674;48.048;8.306;2023-07-22T09:34:37;22.00;55.00
75091;DHT22;63674;48.048;8.306;2023-07-22T09:37:21;22.30;53.90
75091;DHT22;63674;48.048;8.306;2023-07-22T09:39:50;22.60;51.00
75091;DHT22;63674;48.048;8.306;2023-07-22T09:42:24;22.70;52.90
75091;DHT22;63674;48.048;8.306;2023-07-22T09:44:55;22.80;55.80
75091;DHT22;63674;48.048;8.306;2023-07-22T09:47:23;22.70;54.80
75091;DHT22;63674;48.048;8.306;2023-07-22T09:49:53;22.60;51.80
75091;DHT22;63674;48.048;8.306;2023-07-22T09:52:22;22.30;51.60
75091;DHT22;63674;48.048;8.306;2023-07-22T09:54:51;21.80;50.50
75091;DHT22;63674;48.048;8.306;2023-07-22T09:57:21;21.30;52.40
75091;DHT22;63674;48.048;8.306;2023-07-22T09:59:50;20.90;53.00
75091;DHT22;63674;48.048;8.306;2023-07-22T10:02:22;20.50;57.00
75091;DHT22;63674;48.048;8.306;2023-07-22T10:04:53;21.40;59.30
75091;DHT22;63674;48.048;8.306;2023-07-22T10:07:24;21.30;57.70
75091;DHT22;63674;48.048;8.306;2023-07-22T10:09:54;21.40;58.50
75091;DHT22;63674;48.048;8.306;2023-07-22T10:12:24;21.60;56.10
75091;DHT22;63674;48.048;8.306;2023-07-22T10:14:55;21.70;56.50
75091;DHT22;63674;48.048;8.306;2023-07-22T10:17:24;21.90;50.10
75091;DHT22;63674;48.048;8.306;2023-07-22T10:19:58;21.70;55.20
75091;DHT22;63674;48.048;8.306;2023-07-22T10:22:28;21.40;57.70
75091;DHT22;63674;48.048;8.306;2023-07-22T10:24:57;21.40;55.50
75091;DHT22;63674;48.048;8.306;2023-07-22T10:27:28;21.00;53.00
75091;DHT22;63674;48.048;8.306;2023-07-22T10:29:58;21.40;56.20
75091;DHT22;63674;48.048;8.306;2023-07-22T10:32:32;21.60;56.50
75091;DHT22;63674;48.048;8.306;2023-07-22T10:35:03;21.90;52.00
75091;DHT22;63674;48.048;8.306;2023-07-22T10:37:33;21.80;49.90
75091;DHT22;63674;48.048;8.306;2023-07-22T10:40:16;21.70;52.30
75091;DHT22;63674;48.048;8.306;2023-07-22T10:42:54;22.10;49.80
75091;DHT22;63674;48.048;8.306;2023-07-22T10:45:29;22.20;53.00
75091;DHT22;63674;48.048;8.306;2023-07-22T10:48:06;22.40;52.50
75091;DHT22;63674;48.048;8.306;2023-07-22T10:50:44;22.50;47.60
75091;DHT22;63674;48.048;8.306;2023-07-22T10:53:28;22.80;47.90
75091;DHT22;63674;48.048;8.306;2023-07-22T10:56:12;22.90;42.40
75091;DHT22;63674;48.048;8.306;2023-07-22T10:58:59;22.70;44.90
75091;DHT22;63674;48.048;8.306;2023-07-22T11:01:37;22.70;46.10
75091;DHT22;63674;48.048;8.306;2023-07-22T11:04:23;22.90;48.20
75091;DHT22;63674;48.048;8.306;2023-07-22T11:07:30;23.20;43.40
75091;DHT22;63674;48.048;8.306;2023-07-22T11:10:14;23.00;44.80
75091;DHT22;63674;48.048;8.306;2023-07-22T11:12:45;22.70;45.90
75091;DHT22;63674;48.048;8.306;2023-07-22T11:15:15;22.60;46.00
75091;DHT22;63674;48.048;8.306;2023-07-22T11:17:45;22.70;46.30
75091;DHT22;63674;48.048;8.306;2023-07-22T11:20:13;23.00;44.90
75091;DHT22;63674;48.048;8.306;2023-07-22T11:22:44;22.80;43.00
75091;DHT22;63674;48.048;8.306;2023-07-22T11:25:17;22.60;46.80
75091;DHT22;63674;48.048;8.306;2023-07-22T11:27:46;22.70;48.30
75091;DHT22;63674;48.048;8.306;2023-07-22T11:30:15;23.00;53.50
75091;DHT22;63674;48.048;8.306;2023-07-22T11:32:44;23.30;44.10
75091;DHT22;63674;48.048;8.306;2023-07-22T11:35:15;23.10;41.20
75091;DHT22;63674;48.048;8.306;2023-07-22T11:37:47;23.30;46.80
75091;DHT22;63674;48.048;8.306;2023-07-22T11:40:16;23.40;43.00
75091;DHT22;63674;48.048;8.306;2023-07-22T11:42:45;23.10;42.80
75091;DHT22;63674;48.048;8.306;2023-07-22T11:45:15;22.90;46.50
75091;DHT22;63674;48.048;8.306;2023-07-22T11:47:43;22.60;46.40
75091;DHT22;63674;48.048;8.306;2023-07-22T11:50:12;22.90;48.00
75091;DHT22;63674;48.048;8.306;2023-07-22T11:52:41;23.30;49.90
75091;DHT22;63674;48.048;8.306;2023-07-22T11:55:11;23.40;43.00
75091;DHT22;63674;48.048;8.306;2023-07-22T11:57:52;23.40;46.30
75091;DHT22;63674;48.048;8.306;2023-07-22T12:00:21;23.30;45.20
75091;DHT22;63674;48.048;8.306;2023-07-22T12:02:50;23.00;42.60
75091;DHT22;63674;48.048;8.306;2023-07-22T12:05:23;23.20;44.20
75091;DHT22;63674;48.048;8.306;2023-07-22T12:07:52;23.10;44.80
75091;DHT22;63674;48.048;8.306;2023-07-22T12:10:24;23.20;43.20
75091;DHT22;63674;48.048;8.306;2023-07-22T12:12:53;23.20;42.30
75091;DHT22;63674;48.048;8.306;2023-07-22T12:15:22;22.70;43.60
75091;DHT22;63674;48.048;8.306;2023-07-22T12:17:53;22.50;46.70
75091;DHT22;63674;48.048;8.306;2023-07-22T12:20:24;22.30;46.40
75091;DHT22;63674;48.048;8.306;2023-07-22T12:22:54;22.40;43.80
75091;DHT22;63674;48.048;8.306;2023-07-22T12:25:25;22.00;45.00
75091;DHT22;63674;48.048;8.306;2023-07-22T12:27:54;21.90;49.00
75091;DHT22;63674;48.048;8.306;2023-07-22T12:30:22;22.30;48.60
75091;DHT22;63674;48.048;8.306;2023-07-22T12:32:54;22.60;44.90
75091;DHT22;63674;48.048;8.306;2023-07-22T12:35:23;23.00;44.60
75091;DHT22;63674;48.048;8.306;2023-07-22T12:37:51;22.70;44.90
75091;DHT22;63674;48.048;8.306;2023-07-22T12:40:20;22.20;43.90
75091;DHT22;63674;48.048;8.306;2023-07-22T12:42:50;22.30;49.00
75091;DHT22;63674;48.048;8.306;2023-07-22T12:45:18;22.40;43.70
75091;DHT22;63674;48.048;8.306;2023-07-22T12:47:47;22.40;44.00
75091;DHT22;63674;48.048;8.306;2023-07-22T12:50:16;22.00;44.20
75091;DHT22;63674;48.048;8.306;2023-07-22T12:52:44;21.70;45.60
75091;DHT22;63674;48.048;8.306;2023-07-22T12:55:13;21.90;47.40
75091;DHT22;63674;48.048;8.306;2023-07-22T12:57:42;22.40;50.30
75091;DHT22;63674;48.048;8.306;2023-07-22T13:00:12;22.70;47.20
75091;DHT22;63674;48.048;8.306;2023-07-22T13:02:43;22.70;43.10
75091;DHT22;63674;48.048;8.306;2023-07-22T13:05:11;23.10;49.00
75091;DHT22;63674;48.048;8.306;2023-07-22T13:07:40;23.60;47.90
75091;DHT22;63674;48.048;8.306;2023-07-22T13:10:09;23.70;46.30
75091;DHT22;63674;48.048;8.306;2023-07-22T13:12:42;23.80;44.40
75091;DHT22;63674;48.048;8.306;2023-07-22T13:15:12;23.90;44.40
75091;DHT22;63674;48.048;8.306;2023-07-22T13:17:41;23.60;42.80
75091;DHT22;63674;48.048;8.306;2023-07-22T13:20:10;23.20;44.30
75091;DHT22;63674;48.048;8.306;2023-07-22T13:22:39;23.00;47.70
75091;DHT22;63674;48.048;8.306;2023-07-22T13:25:08;23.40;47.70
75091;DHT22;63674;48.048;8.306;2023-07-22T13:27:37;23.60;46.60
75091;DHT22;63674;48.048;8.306;2023-07-22T13:30:08;23.80;43.30
75091;DHT22;63674;48.048;8.306;2023-07-22T13:32:39;23.90;44.70
75091;DHT22;63674;48.048;8.306;2023-07-22T13:35:08;24.00;42.40
75091;DHT22;63674;48.048;8.306;2023-07-22T13:37:37;24.10;44.60
75091;DHT22;63674;48.048;8.306;2023-07-22T13:40:06;24.00;43.60
75091;DHT22;63674;48.048;8.306;2023-07-22T13:42:38;24.10;45.70
75091;DHT22;63674;48.048;8.306;2023-07-22T13:45:07;24.30;41.80
75091;DHT22;63674;48.048;8.306;2023-07-22T13:47:37;24.20;42.20
75091;DHT22;63674;48.048;8.306;2023-07-22T13:50:07;24.10;40.10
75091;DHT22;63674;48.048;8.306;2023-07-22T13:52:37;23.90;42.50
75091;DHT22;63674;48.048;8.306;2023-07-22T13:55:08;23.80;43.90
75091;DHT22;63674;48.048;8.306;2023-07-22T13:57:37;23.90;40.30
75091;DHT22;63674;48.048;8.306;2023-07-22T14:00:07;24.10;44.60
75091;DHT22;63674;48.048;8.306;2023-07-22T14:02:38;24.10;42.70
75091;DHT22;63674;48.048;8.306;2023-07-22T14:05:08;24.30;44.20
75091;DHT22;63674;48.048;8.306;2023-07-22T14:07:37;24.40;42.50
75091;DHT22;63674;48.048;8.306;2023-07-22T14:10:07;24.30;40.40
75091;DHT22;63674;48.048;8.306;2023-07-22T14:12:36;23.80;42.00
75091;DHT22;63674;48.048;8.306;2023-07-22T14:15:06;23.20;41.90
75091;DHT22;63674;48.048;8.306;2023-07-22T14:17:35;23.20;42.80
75091;DHT22;63674;48.048;8.306;2023-07-22T14:20:07;23.30;46.60
75091;DHT22;63674;48.048;8.306;2023-07-22T14:22:38;23.40;45.60
75091;DHT22;63674;48.048;8.306;2023-07-22T14:25:07;23.30;42.30
75091;DHT22;63674;48.048;8.306;2023-07-22T14:27:38;23.20;41.70
75091;DHT22;63674;48.048;8.306;2023-07-22T14:30:08;23.20;42.00
75091;DHT22;63674;48.048;8.306;2023-07-22T14:32:38;23.30;44.70
75091;DHT22;63674;48.048;8.306;2023-07-22T14:35:08;23.70;41.50
75091;DHT22;63674;48.048;8.306;2023-07-22T14:37:37;23.80;43.70
75091;DHT22;63674;48.048;8.306;2023-07-22T14:40:07;24.10;44.60
75091;DHT22;63674;48.048;8.306;2023-07-22T14:42:36;24.10;42.20
75091;DHT22;63674;48.048;8.306;2023-07-22T14:45:06;24.10;42.10
75091;DHT22;63674;48.048;8.306;2023-07-22T14:47:36;23.90;40.80
75091;DHT22;63674;48.048;8.306;2023-07-22T14:50:05;23.90;40.70
75091;DHT22;63674;48.048;8.306;2023-07-22T14:52:36;23.90;42.50
75091;DHT22;63674;48.048;8.306;2023-07-22T14:55:05;23.60;40.90
75091;DHT22;63674;48.048;8.306;2023-07-22T14:57:34;23.60;41.60
75091;DHT22;63674;48.048;8.306;2023-07-22T15:00:03;23.80;43.30
75091;DHT22;63674;48.048;8.306;2023-07-22T15:02:32;23.50;39.00
75091;DHT22;63674;48.048;8.306;2023-07-22T15:05:01;23.30;39.90
75091;DHT22;63674;48.048;8.306;2023-07-22T15:07:30;23.50;44.70
75091;DHT22;63674;48.048;8.306;2023-07-22T15:10:00;23.40;42.30
75091;DHT22;63674;48.048;8.306;2023-07-22T15:12:29;23.20;42.80
75091;DHT22;63674;48.048;8.306;2023-07-22T15:14:57;23.00;40.10
75091;DHT22;63674;48.048;8.306;2023-07-22T15:17:27;22.90;41.10
75091;DHT22;63674;48.048;8.306;2023-07-22T15:19:58;22.80;43.60
75091;DHT22;63674;48.048;8.306;2023-07-22T15:22:27;22.70;44.90
75091;DHT22;63674;48.048;8.306;2023-07-22T15:24:56;22.50;42.30
75091;DHT22;63674;48.048;8.306;2023-07-22T15:27:26;22.50;43.50
75091;DHT22;63674;48.048;8.306;2023-07-22T15:29:54;22.50;45.00
75091;DHT22;63674;48.048;8.306;2023-07-22T15:32:23;22.50;45.30
75091;DHT22;63674;48.048;8.306;2023-07-22T15:34:51;22.30;46.60
75091;DHT22;63674;48.048;8.306;2023-07-22T15:37:20;22.20;43.20
75091;DHT22;63674;48.048;8.306;2023-07-22T15:39:49;22.30;45.80
75091;DHT22;63674;48.048;8.306;2023-07-22T15:42:17;22.20;46.20
75091;DHT22;63674;48.048;8.306;2023-07-22T15:44:47;22.20;43.60
75091;DHT22;63674;48.048;8.306;2023-07-22T15:47:16;22.10;48.30
75091;DHT22;63674;48.048;8.306;2023-07-22T15:49:44;22.00;45.20
75091;DHT22;63674;48.048;8.306;2023-07-22T15:52:13;22.00;43.10
75091;DHT22;63674;48.048;8.306;2023-07-22T15:54:41;21.90;45.00